Accueil
METAR-TAF:

METAR-TAF

Aéroports :

Aéroport de Port Moresby-Jacksons

Port Moresby, Papouasie-Nouvelle-Guinée

latitude: 09-26S, longitude: 147-13E, altitude: 38 m

Observation

Le bulletin a été fait il y a 1 heure et 23 minutes, à 03:00 UTC
Vent 15 kt de ouest/sud-ouest
Température 33°C
Humidité 53%
Pression 1008 hPa
Visibilité 10 km ou plus
Nuages épars à une hauteur de 4000 ft

METAR: AYPY 230300Z 25015KT 9999 SCT040 33/22 Q1008 RMK:CB TO E

Heure: 14:23 (04:23 UTC)

Prévision

Le bulletin a été fait il y a 5 heures et 53 minutes, à 22:30 UTC
Prévision valable du 23 à 00 UTC au 23 à 24 UTC
Vent 10 kt de nord/nord-ouest
Visibilité 10 km ou plus
Nuages épars à une hauteur de 2000 ft

TAF: AYPY 222230Z 2300/2324 34010KT 9999 SCT020

Observations et prévisions météorologiques de plus de 4000 aéroports (messages METAR et TAF).

Les stations disponibles sont représentées par des disques jaunes et rouges sur la carte.

Passer la souris dessus pour voir le nom de la station.

Cliquer dessus pour voir les observations et prévisions météorologiques.

Pour changer de carte: cliquez sur les boutons verts avec une croix noire pour zoomer, sur le bouton vert avec un tiret pour effectuer un zoom arrière, ou sur les flèches vertes pour les cartes adjacentes.


METAR-TAF: